Time;durP1;ratioP1;P1;durP2;ratioP2;P2;SDS_P1;SDS_P2;PMS_P1;PMS_P2;Temp;Humidity;BMP_temperature;BMP_pressure;BME280_temperature;BME280_humidity;BME280_pressure;Samples;Min_cycle;Max_cycle;Signal;HPM_P1;HPM_P2
2021/11/29 00:00:01;;;;;;;17.60;10.85;;;;;;;0.97;95.42;99796.88;5038231;28;20037;-74
2021/11/29 00:02:27;;;;;;;17.92;12.10;;;;;;;0.98;95.98;99799.34;5034975;28;20037;-73
2021/11/29 00:04:53;;;;;;;18.10;11.55;;;;;;;1.01;95.90;99801.59;5036529;28;20037;-74
2021/11/29 00:07:18;;;;;;;20.60;12.43;;;;;;;1.04;95.93;99805.75;5019443;28;20034;-74
2021/11/29 00:09:43;;;;;;;18.48;11.75;;;;;;;1.07;95.70;99814.28;5016013;28;20021;-74
2021/11/29 00:12:09;;;;;;;19.05;11.13;;;;;;;1.10;95.54;99810.22;5035853;28;20034;-73
2021/11/29 00:14:35;;;;;;;18.75;10.52;;;;;;;1.11;95.47;99820.06;5037728;28;20461;-74
2021/11/29 00:17:00;;;;;;;16.92;10.45;;;;;;;1.13;95.90;99812.44;5035919;28;20034;-73
2021/11/29 00:19:25;;;;;;;17.88;10.98;;;;;;;1.15;95.60;99821.25;5035686;28;20037;-73
2021/11/29 00:21:51;;;;;;;20.30;11.05;;;;;;;1.17;95.73;99823.72;5036018;28;20100;-74
2021/11/29 00:24:16;;;;;;;18.08;11.30;;;;;;;1.18;95.56;99828.94;5033306;28;20049;-73
2021/11/29 00:26:42;;;;;;;17.10;10.23;;;;;;;1.22;95.47;99810.94;5036474;28;20061;-73
2021/11/29 00:29:07;;;;;;;16.15;10.57;;;;;;;1.23;95.95;99820.00;5033885;28;20041;-73
2021/11/29 00:31:33;;;;;;;15.15;9.73;;;;;;;1.27;95.85;99829.34;5035137;28;20716;-73
2021/11/29 00:33:58;;;;;;;16.92;9.60;;;;;;;1.27;95.90;99821.16;5036528;28;20429;-73
2021/11/29 00:36:24;;;;;;;13.80;9.88;;;;;;;1.30;95.97;99812.44;5032966;28;20021;-73
2021/11/29 00:38:49;;;;;;;16.33;9.65;;;;;;;1.34;95.92;99813.59;5034450;28;20041;-73
2021/11/29 00:41:15;;;;;;;16.23;10.00;;;;;;;1.34;96.22;99794.47;5036098;28;20025;-73
2021/11/29 00:43:41;;;;;;;18.65;10.20;;;;;;;1.36;96.37;99805.97;5035866;28;20091;-73
2021/11/29 00:46:07;;;;;;;16.20;9.60;;;;;;;1.38;96.53;99798.34;5035342;28;20033;-73
2021/11/29 00:48:32;;;;;;;17.33;9.98;;;;;;;1.40;96.39;99793.44;5036233;28;20077;-74
2021/11/29 00:50:58;;;;;;;14.20;9.60;;;;;;;1.42;96.53;99783.09;5035470;28;20026;-74
2021/11/29 00:53:23;;;;;;;12.98;9.15;;;;;;;1.43;96.44;99781.19;5032977;28;20195;-74
2021/11/29 00:55:48;;;;;;;15.85;9.93;;;;;;;1.42;96.45;99777.63;5037187;28;20394;-73
2021/11/29 00:58:14;;;;;;;17.50;9.52;;;;;;;1.48;96.59;99786.72;5033371;28;20021;-73
2021/11/29 01:00:40;;;;;;;14.93;9.18;;;;;;;1.48;96.35;99776.59;5033415;28;20045;-73
2021/11/29 01:03:06;;;;;;;12.70;8.55;;;;;;;1.49;96.58;99789.19;5020948;28;20037;-73
2021/11/29 01:05:31;;;;;;;13.82;8.20;;;;;;;1.53;96.13;99790.38;5033884;28;20037;-73
2021/11/29 01:07:57;;;;;;;13.55;8.70;;;;;;;1.52;96.27;99788.69;5021441;28;20090;-73
2021/11/29 01:10:25;;;;;;;14.07;8.85;;;;;;;1.54;96.33;99799.41;5032984;28;20036;-73
2021/11/29 01:12:51;;;;;;;13.10;8.60;;;;;;;1.54;96.48;99797.47;5033808;28;20462;-74
2021/11/29 01:15:18;;;;;;;13.57;8.35;;;;;;;1.56;96.37;99806.28;5035289;28;20099;-73
2021/11/29 01:17:44;;;;;;;14.07;8.48;;;;;;;1.56;96.13;99806.28;5026345;28;20034;-73
2021/11/29 01:20:10;;;;;;;12.02;7.95;;;;;;;1.55;95.81;99801.84;5032851;28;20036;-73
2021/11/29 01:22:36;;;;;;;13.93;8.15;;;;;;;1.58;95.99;99813.41;5024724;28;20104;-73
2021/11/29 01:25:01;;;;;;;11.48;7.78;;;;;;;1.55;96.40;99821.03;5035498;28;20049;-73
2021/11/29 01:27:27;;;;;;;11.60;7.88;;;;;;;1.56;96.11;99811.75;5033710;28;20040;-73
2021/11/29 01:29:52;;;;;;;12.07;7.85;;;;;;;1.54;95.88;99816.63;5036851;28;20029;-73
2021/11/29 01:32:18;;;;;;;12.35;8.20;;;;;;;1.49;95.95;99811.09;5028157;28;20390;-73
2021/11/29 01:34:43;;;;;;;11.05;7.82;;;;;;;1.50;95.76;99817.38;5029354;28;20029;-73
2021/11/29 01:37:09;;;;;;;12.48;7.43;;;;;;;1.48;95.70;99820.38;5034918;28;20382;-73
2021/11/29 01:39:34;;;;;;;11.57;7.57;;;;;;;1.46;95.57;99821.72;5014481;28;20036;-73
2021/11/29 01:42:00;;;;;;;9.27;7.32;;;;;;;1.45;95.22;99823.63;5028038;28;20048;-73
2021/11/29 01:44:25;;;;;;;13.02;7.80;;;;;;;1.37;95.46;99829.53;5025485;28;20112;-73
2021/11/29 01:46:51;;;;;;;12.48;7.97;;;;;;;1.35;95.46;99837.13;5031267;28;20065;-73
2021/11/29 01:49:16;;;;;;;12.25;7.50;;;;;;;1.33;95.56;99844.75;5032082;28;20030;-73
2021/11/29 01:51:42;;;;;;;12.38;7.65;;;;;;;1.36;95.46;99857.94;5017200;28;20037;-73
2021/11/29 01:54:08;;;;;;;11.13;7.28;;;;;;;1.32;95.46;99860.34;5035818;28;20445;-73
2021/11/29 01:56:34;;;;;;;10.50;7.35;;;;;;;1.32;95.45;99859.53;5030482;28;20022;-73
2021/11/29 01:59:00;;;;;;;13.73;7.93;;;;;;;1.31;95.61;99863.34;5030447;28;20029;-74
2021/11/29 02:01:26;;;;;;;13.90;7.32;;;;;;;1.30;95.61;99857.03;5034264;28;20067;-74
2021/11/29 02:03:56;;;;;;;13.43;7.93;;;;;;;1.29;95.65;99862.78;5033371;28;20033;-73
2021/11/29 02:06:23;;;;;;;9.40;7.00;;;;;;;1.28;95.84;99872.03;5032439;28;20026;-73
2021/11/29 02:08:48;;;;;;;11.82;7.25;;;;;;;1.32;95.88;99881.41;5037871;28;20033;-73
2021/11/29 02:11:13;;;;;;;11.60;7.63;;;;;;;1.32;95.98;99889.63;5031582;28;20037;-73
2021/11/29 02:13:39;;;;;;;12.23;7.60;;;;;;;1.33;95.83;99886.63;5010312;28;20033;-73
2021/11/29 02:16:05;;;;;;;10.52;7.43;;;;;;;1.31;95.89;99879.78;5035417;28;20681;-73
2021/11/29 02:18:34;;;;;;;12.65;7.80;;;;;;;1.33;96.11;99886.63;5032891;28;20108;-73
2021/11/29 02:21:08;;;;;;;14.07;7.40;;;;;;;1.34;95.88;99880.09;5026223;28;20040;-73
2021/11/29 02:23:35;;;;;;;11.88;7.03;;;;;;;1.33;96.00;99885.81;5032605;28;20045;-74
2021/11/29 02:26:00;;;;;;;10.38;7.03;;;;;;;1.31;96.17;99890.72;5033411;28;20068;-74
2021/11/29 02:28:26;;;;;;;10.90;6.57;;;;;;;1.28;96.21;99892.03;5018087;28;20021;-74
2021/11/29 02:30:51;;;;;;;12.52;7.88;;;;;;;1.32;96.03;99882.25;5033951;28;20040;-74
2021/11/29 02:33:17;;;;;;;10.35;6.47;;;;;;;1.28;95.94;99885.72;5033586;28;20036;-73
2021/11/29 02:35:42;;;;;;;11.20;6.85;;;;;;;1.25;95.85;99891.69;5039964;28;20029;-73
2021/11/29 02:38:08;;;;;;;9.30;7.07;;;;;;;1.24;95.91;99888.13;5031596;28;20049;-73
2021/11/29 02:40:34;;;;;;;12.60;7.20;;;;;;;1.22;95.84;99893.00;5033983;28;20029;-74
2021/11/29 02:42:59;;;;;;;10.52;6.22;;;;;;;1.22;95.56;99892.19;5035447;28;20068;-73
2021/11/29 02:45:25;;;;;;;12.30;6.55;;;;;;;1.16;95.65;99901.38;5032379;28;20030;-73
2021/11/29 02:47:51;;;;;;;10.77;6.53;;;;;;;1.13;95.68;99908.16;5034036;28;20029;-74
2021/11/29 02:50:16;;;;;;;9.57;7.05;;;;;;;1.10;95.79;99906.75;5035876;28;20061;-73
2021/11/29 02:52:42;;;;;;;9.60;6.55;;;;;;;1.07;95.72;99901.78;5030861;28;20033;-74
2021/11/29 02:55:08;;;;;;;10.77;6.18;;;;;;;1.08;95.87;99902.59;5031847;28;20052;-73
2021/11/29 02:57:34;;;;;;;11.27;7.55;;;;;;;1.02;96.27;99904.41;5022440;28;20025;-74
2021/11/29 02:59:59;;;;;;;9.10;6.63;;;;;;;0.97;95.97;99912.53;5032139;28;20421;-73
2021/11/29 03:02:26;;;;;;;10.27;6.43;;;;;;;0.92;95.95;99909.72;5032256;28;20036;-73
2021/11/29 03:04:52;;;;;;;10.35;6.80;;;;;;;0.91;95.92;99908.03;5034400;28;20029;-73
2021/11/29 03:07:17;;;;;;;9.18;6.47;;;;;;;0.87;95.82;99906.88;5006602;28;20025;-73
2021/11/29 03:09:43;;;;;;;12.20;6.93;;;;;;;0.86;95.71;99911.53;5030362;28;20375;-74
2021/11/29 03:12:09;;;;;;;11.25;6.60;;;;;;;0.84;95.85;99915.59;5023370;28;20033;-73
2021/11/29 03:14:34;;;;;;;9.82;6.93;;;;;;;0.81;95.74;99918.81;5033088;28;20037;-73
2021/11/29 03:17:00;;;;;;;9.95;6.57;;;;;;;0.79;96.01;99929.16;5012327;28;20029;-73
2021/11/29 03:19:33;;;;;;;10.25;6.45;;;;;;;0.76;95.75;99929.63;5034261;28;20038;-73
2021/11/29 03:21:59;;;;;;;10.32;7.03;;;;;;;0.72;96.05;99929.28;5031069;28;20025;-73
2021/11/29 03:24:24;;;;;;;12.55;6.78;;;;;;;0.70;95.75;99933.31;5033967;28;20044;-73
2021/11/29 03:26:50;;;;;;;12.35;7.03;;;;;;;0.68;95.95;99940.97;5037307;28;20045;-73
2021/11/29 03:29:16;;;;;;;10.15;6.78;;;;;;;0.63;96.03;99938.94;5035066;28;20029;-73
2021/11/29 03:31:42;;;;;;;9.68;6.53;;;;;;;0.61;96.29;99949.28;5037998;28;20481;-73
2021/11/29 03:34:11;;;;;;;11.90;7.10;;;;;;;0.54;96.61;99938.50;5026965;28;20029;-73
2021/11/29 03:36:37;;;;;;;11.07;7.07;;;;;;;0.54;96.58;99946.69;5035282;28;20445;-73
2021/11/29 03:39:08;;;;;;;12.40;7.18;;;;;;;0.54;96.39;99951.34;5034635;28;20037;-74
2021/11/29 03:41:34;;;;;;;11.55;6.90;;;;;;;0.51;96.45;99958.13;5036273;28;20033;-74
2021/11/29 03:43:59;;;;;;;9.77;6.78;;;;;;;0.46;96.39;99960.72;5036804;28;20490;-73
2021/11/29 03:46:25;;;;;;;8.95;6.18;;;;;;;0.43;96.59;99966.69;5037959;28;20033;-74
2021/11/29 03:48:50;;;;;;;12.00;7.28;;;;;;;0.41;96.45;99966.09;5037490;28;20034;-73
2021/11/29 03:51:16;;;;;;;13.40;7.55;;;;;;;0.38;96.30;99978.31;5034090;28;20033;-74
2021/11/29 03:53:41;;;;;;;9.73;6.72;;;;;;;0.37;96.42;99976.66;5036894;28;20026;-73
2021/11/29 03:56:07;;;;;;;12.73;6.85;;;;;;;0.34;96.55;99982.63;5039329;28;20025;-74
2021/11/29 03:58:32;;;;;;;10.15;6.85;;;;;;;0.30;96.66;99988.78;5016295;28;20363;-73
2021/11/29 04:00:58;;;;;;;10.00;7.10;;;;;;;0.28;96.62;99990.91;5034720;28;20032;-73
2021/11/29 04:03:23;;;;;;;11.90;7.18;;;;;;;0.26;96.64;99995.81;5035733;28;20375;-73
2021/11/29 04:05:49;;;;;;;9.65;6.80;;;;;;;0.27;96.73;100005.66;5038009;28;20045;-74
2021/11/29 04:08:14;;;;;;;10.80;6.93;;;;;;;0.24;97.36;100009.69;5035977;28;20036;-74
2021/11/29 04:10:40;;;;;;;13.07;7.30;;;;;;;0.21;97.66;100024.66;5037483;28;20375;-74
2021/11/29 04:13:05;;;;;;;15.05;8.98;;;;;;;0.22;97.53;100026.34;5017754;28;20034;-73
2021/11/29 04:15:31;;;;;;;14.70;8.40;;;;;;;0.26;97.62;100026.69;5025967;28;20036;-74
2021/11/29 04:17:56;;;;;;;14.27;8.38;;;;;;;0.28;97.65;100034.63;5034277;28;20172;-73
2021/11/29 04:20:22;;;;;;;15.50;7.80;;;;;;;0.31;97.31;100034.16;5033927;28;20393;-73
2021/11/29 04:22:48;;;;;;;16.02;7.93;;;;;;;0.30;97.56;100041.50;5036875;28;20029;-74
2021/11/29 04:25:16;;;;;;;13.90;8.00;;;;;;;0.32;97.99;100046.75;5032803;28;20044;-73
2021/11/29 04:27:43;;;;;;;17.83;9.80;;;;;;;0.29;98.33;100048.06;5036228;28;20050;-74
2021/11/29 04:30:13;;;;;;;24.05;10.25;;;;;;;0.34;98.09;100058.28;5037825;28;20033;-74
2021/11/29 04:32:39;;;;;;;20.20;9.65;;;;;;;0.32;98.89;100065.88;5030324;28;20503;-73
2021/11/29 04:35:05;;;;;;;19.60;10.27;;;;;;;0.25;100.00;100078.78;5028295;28;20217;-73
2021/11/29 04:37:31;;;;;;;17.65;10.02;;;;;;;0.26;100.00;100084.03;5035492;28;20036;-74
2021/11/29 04:39:56;;;;;;;24.42;10.35;;;;;;;0.26;100.00;100077.75;5034568;28;20091;-73
2021/11/29 04:42:21;;;;;;;17.45;9.35;;;;;;;0.27;100.00;100080.22;5039814;28;20033;-73
2021/11/29 04:44:47;;;;;;;20.13;9.43;;;;;;;0.26;100.00;100081.31;5003709;28;20030;-73
2021/11/29 04:47:12;;;;;;;16.08;8.95;;;;;;;0.28;100.00;100086.50;5036331;28;20029;-73
2021/11/29 04:49:38;;;;;;;14.23;9.00;;;;;;;0.31;100.00;100091.53;5034817;28;20028;-73
2021/11/29 04:52:04;;;;;;;24.63;11.77;;;;;;;0.28;100.00;100101.03;5038349;28;20029;-73
2021/11/29 04:54:29;;;;;;;19.25;11.55;;;;;;;0.28;100.00;100105.63;5025580;28;20029;-73
2021/11/29 04:56:55;;;;;;;15.20;9.60;;;;;;;0.30;100.00;100103.50;5033306;28;20029;-73
2021/11/29 04:59:20;;;;;;;23.50;13.15;;;;;;;0.33;100.00;100105.75;5042103;28;20033;-73
2021/11/29 05:01:46;;;;;;;17.50;12.38;;;;;;;0.32;100.00;100113.13;5034208;28;20037;-73
2021/11/29 05:04:11;;;;;;;17.00;10.57;;;;;;;0.39;100.00;100118.47;5038559;28;20033;-73
2021/11/29 05:06:38;;;;;;;13.95;9.18;;;;;;;0.44;100.00;100126.78;5032764;28;20037;-73
2021/11/29 05:09:05;;;;;;;15.13;9.98;;;;;;;0.48;100.00;100122.53;5033951;28;20037;-73
2021/11/29 05:11:30;;;;;;;14.95;9.90;;;;;;;0.52;100.00;100125.63;5035402;28;20043;-73
2021/11/29 05:13:56;;;;;;;13.52;8.95;;;;;;;0.55;100.00;100114.22;5036002;28;20085;-73
2021/11/29 05:16:21;;;;;;;13.77;8.55;;;;;;;0.58;100.00;100109.09;5033542;28;20363;-73
2021/11/29 05:18:47;;;;;;;13.38;8.95;;;;;;;0.60;100.00;100120.63;5036681;28;20033;-73
2021/11/29 05:21:12;;;;;;;11.35;8.50;;;;;;;0.63;100.00;100130.25;5035218;28;20029;-73
2021/11/29 05:23:38;;;;;;;11.70;8.32;;;;;;;0.62;100.00;100134.88;5032201;28;20067;-73
2021/11/29 05:26:03;;;;;;;13.07;8.10;;;;;;;0.63;99.82;100139.28;5036401;28;20026;-73
2021/11/29 05:28:29;;;;;;;11.95;7.60;;;;;;;0.62;99.49;100148.56;5035245;28;20029;-73
2021/11/29 05:30:54;;;;;;;12.10;8.25;;;;;;;0.61;99.32;100152.38;5033489;28;20423;-73
2021/11/29 05:33:20;;;;;;;11.13;7.50;;;;;;;0.59;99.18;100157.22;5036528;28;20086;-74
2021/11/29 05:35:45;;;;;;;10.95;7.78;;;;;;;0.63;98.96;100158.41;5027191;28;20025;-74
2021/11/29 05:38:11;;;;;;;9.98;7.43;;;;;;;0.60;98.95;100163.53;5031415;28;20022;-74
2021/11/29 05:40:36;;;;;;;11.18;7.60;;;;;;;0.57;98.97;100159.34;5023173;28;20034;-73
2021/11/29 05:43:02;;;;;;;11.90;8.10;;;;;;;0.58;98.58;100163.75;5026501;28;20022;-73
2021/11/29 05:45:27;;;;;;;11.98;7.60;;;;;;;0.58;98.52;100166.47;5028439;28;20425;-73
2021/11/29 05:47:53;;;;;;;9.25;7.30;;;;;;;0.56;98.43;100173.28;5033407;28;20171;-73
2021/11/29 05:50:19;;;;;;;13.27;8.68;;;;;;;0.52;98.42;100172.06;5031665;28;20390;-74
2021/11/29 05:52:44;;;;;;;17.58;9.07;;;;;;;0.51;98.49;100179.44;5035855;28;20079;-74
2021/11/29 05:55:11;;;;;;;14.23;8.60;;;;;;;0.48;98.74;100187.28;5034527;28;20033;-73
2021/11/29 05:57:37;;;;;;;14.07;8.93;;;;;;;0.44;98.79;100195.09;5033721;28;20462;-73
2021/11/29 06:00:05;;;;;;;24.13;13.70;;;;;;;0.40;98.96;100207.56;5027168;28;20029;-74
2021/11/29 06:02:30;;;;;;;25.23;13.73;;;;;;;0.39;98.94;100211.34;5035635;28;20038;-74
2021/11/29 06:04:57;;;;;;;21.58;13.02;;;;;;;0.36;98.99;100212.69;5033147;28;20032;-73
2021/11/29 06:07:22;;;;;;;18.83;11.38;;;;;;;0.36;98.76;100223.63;5034403;28;20040;-73
2021/11/29 06:09:48;;;;;;;22.27;12.77;;;;;;;0.36;98.61;100229.06;5034181;28;20033;-74
2021/11/29 06:12:13;;;;;;;22.20;12.15;;;;;;;0.34;98.42;100236.66;5031023;28;20021;-73
2021/11/29 06:14:38;;;;;;;21.63;13.65;;;;;;;0.30;98.71;100238.19;5036082;28;20045;-73
2021/11/29 06:17:04;;;;;;;20.92;11.90;;;;;;;0.31;98.59;100233.56;5033870;28;20025;-73
2021/11/29 06:19:29;;;;;;;19.88;11.63;;;;;;;0.25;98.54;100235.31;5033845;28;20546;-73
2021/11/29 06:21:55;;;;;;;17.02;11.70;;;;;;;0.22;98.48;100244.84;5034564;28;20037;-73
2021/11/29 06:24:20;;;;;;;16.05;10.32;;;;;;;0.18;98.50;100246.34;5033090;28;20123;-74
2021/11/29 06:26:46;;;;;;;18.17;10.43;;;;;;;0.16;98.34;100253.09;5031893;28;20026;-73
2021/11/29 06:29:11;;;;;;;15.63;10.45;;;;;;;0.14;98.26;100257.94;5034633;28;20029;-73
2021/11/29 06:31:38;;;;;;;18.75;11.48;;;;;;;0.11;98.36;100255.69;5033278;28;20026;-73
2021/11/29 06:34:03;;;;;;;16.70;10.55;;;;;;;0.07;98.38;100263.53;5027037;28;20646;-73
2021/11/29 06:36:29;;;;;;;17.55;10.88;;;;;;;0.05;98.17;100279.28;5034323;28;20052;-73
2021/11/29 06:38:55;;;;;;;16.65;10.50;;;;;;;0.00;98.32;100281.91;5033625;28;20470;-73
2021/11/29 06:41:21;;;;;;;19.23;10.80;;;;;;;-0.02;98.05;100282.13;5016828;28;20045;-73
2021/11/29 06:43:47;;;;;;;20.90;11.38;;;;;;;-0.05;98.34;100292.69;5016583;28;20056;-73
2021/11/29 06:46:12;;;;;;;19.15;11.05;;;;;;;-0.07;98.30;100287.44;5035647;28;20034;-73
2021/11/29 06:48:38;;;;;;;16.95;11.20;;;;;;;-0.10;97.92;100290.63;5029998;28;20037;-73
2021/11/29 06:51:03;;;;;;;18.52;9.95;;;;;;;-0.17;98.33;100299.94;5032454;28;20033;-73
2021/11/29 06:53:29;;;;;;;17.13;10.50;;;;;;;-0.21;98.41;100320.59;5033917;28;20033;-73
2021/11/29 06:55:56;;;;;;;15.90;9.88;;;;;;;-0.22;98.35;100325.22;5034275;28;20076;-73
2021/11/29 06:58:22;;;;;;;16.83;9.60;;;;;;;-0.26;98.24;100319.34;5033303;28;20042;-73
2021/11/29 07:00:48;;;;;;;15.73;10.38;;;;;;;-0.28;98.53;100332.44;5037906;28;20030;-73
2021/11/29 07:03:14;;;;;;;16.63;9.93;;;;;;;-0.28;98.31;100334.28;5038657;28;20026;-73
2021/11/29 07:05:39;;;;;;;14.10;9.30;;;;;;;-0.37;98.59;100333.75;5036080;28;20033;-73
2021/11/29 07:08:05;;;;;;;15.57;9.88;;;;;;;-0.41;98.53;100332.56;5035216;28;20022;-73
2021/11/29 07:10:31;;;;;;;15.77;9.55;;;;;;;-0.41;98.43;100339.91;5036813;28;20030;-73
2021/11/29 07:12:56;;;;;;;16.60;9.75;;;;;;;-0.43;97.98;100347.50;5036628;28;20029;-73
2021/11/29 07:28:15;;;;;;;14.15;9.65;;;;;;;-0.66;98.34;100395.34;5110639;27;20381;-69
2021/11/29 07:30:41;;;;;;;14.18;9.52;;;;;;;-0.68;98.15;100392.00;5078997;28;20035;-69
2021/11/29 07:33:07;;;;;;;14.05;9.73;;;;;;;-0.74;98.32;100392.88;5079214;28;20028;-69
2021/11/29 07:35:32;;;;;;;14.25;9.27;;;;;;;-0.74;97.79;100399.16;5087436;28;20033;-69
2021/11/29 07:37:58;;;;;;;13.18;8.75;;;;;;;-0.78;98.17;100406.13;5094112;28;20057;-69
2021/11/29 07:40:28;;;;;;;14.88;9.13;;;;;;;-0.82;98.23;100409.53;5101426;28;20080;-69
2021/11/29 07:42:57;;;;;;;15.98;9.32;;;;;;;-0.87;98.34;100414.78;5075783;28;20118;-69
2021/11/29 07:45:23;;;;;;;10.70;8.15;;;;;;;-0.89;98.41;100425.94;5072730;28;20096;-69
2021/11/29 07:47:48;;;;;;;13.45;8.55;;;;;;;-0.92;98.24;100426.34;5074378;28;20032;-69
2021/11/29 07:50:15;;;;;;;12.20;8.18;;;;;;;-0.91;98.34;100436.22;5091792;28;20025;-69
2021/11/29 07:52:41;;;;;;;12.65;8.25;;;;;;;-0.95;98.49;100433.13;5085432;28;20047;-69
2021/11/29 07:55:11;;;;;;;13.30;8.30;;;;;;;-0.97;98.52;100431.66;5119516;27;20039;-69
2021/11/29 07:57:37;;;;;;;12.05;8.38;;;;;;;-0.95;98.43;100437.69;5097299;28;20046;-69
2021/11/29 08:00:08;;;;;;;11.95;8.20;;;;;;;-0.97;98.79;100437.94;5061867;28;20032;-69
2021/11/29 08:02:33;;;;;;;13.10;8.18;;;;;;;-0.97;98.94;100439.84;5109543;28;20060;-70
2021/11/29 08:04:59;;;;;;;12.73;8.38;;;;;;;-0.92;98.95;100442.72;5073524;28;20036;-69
2021/11/29 08:07:24;;;;;;;11.52;8.15;;;;;;;-0.94;99.48;100439.41;5081580;28;20024;-70
2021/11/29 08:09:50;;;;;;;12.43;8.20;;;;;;;-0.94;99.74;100444.84;5064815;28;20031;-69
2021/11/29 08:12:15;;;;;;;12.73;7.65;;;;;;;-0.91;99.80;100463.50;5081875;28;20021;-66
2021/11/29 08:14:41;;;;;;;12.27;7.80;;;;;;;-0.84;100.00;100458.81;5066227;28;20545;-72
2021/11/29 08:17:07;;;;;;;12.55;7.97;;;;;;;-0.81;100.00;100458.38;5052324;28;20120;-72
2021/11/29 08:19:32;;;;;;;11.98;8.27;;;;;;;-0.73;100.00;100466.28;5091736;28;20059;-72
2021/11/29 08:21:58;;;;;;;13.38;7.57;;;;;;;-0.65;100.00;100478.00;5073422;28;20036;-73
2021/11/29 08:24:23;;;;;;;12.25;7.43;;;;;;;-0.57;100.00;100475.00;5057619;28;20024;-72
2021/11/29 08:26:49;;;;;;;13.18;8.75;;;;;;;-0.49;100.00;100472.00;5099557;28;20392;-73
2021/11/29 08:29:14;;;;;;;11.43;7.95;;;;;;;-0.40;100.00;100487.03;5077639;28;20032;-72
2021/11/29 08:31:40;;;;;;;13.43;8.18;;;;;;;-0.27;100.00;100486.09;5084007;28;20024;-73
2021/11/29 08:34:05;;;;;;;13.88;8.55;;;;;;;-0.18;100.00;100489.38;5081336;28;20035;-73
2021/11/29 08:36:31;;;;;;;12.65;8.55;;;;;;;-0.06;100.00;100499.31;5061716;28;20488;-73
2021/11/29 08:38:56;;;;;;;12.15;8.05;;;;;;;0.07;100.00;100497.53;5052421;28;20035;-72
2021/11/29 08:41:22;;;;;;;12.05;8.65;;;;;;;0.14;100.00;100493.69;5056853;28;20036;-72
2021/11/29 08:43:48;;;;;;;14.90;9.32;;;;;;;0.25;100.00;100507.63;5079149;28;20086;-72
2021/11/29 08:46:13;;;;;;;14.10;9.02;;;;;;;0.34;100.00;100498.94;5078543;28;20515;-73
2021/11/29 08:48:39;;;;;;;14.02;10.07;;;;;;;0.42;100.00;100506.81;5061203;28;20051;-72
2021/11/29 08:51:04;;;;;;;16.63;10.07;;;;;;;0.52;100.00;100509.00;5079876;28;20365;-72
2021/11/29 08:53:30;;;;;;;18.38;10.18;;;;;;;0.62;100.00;100506.59;5049117;28;20024;-72
2021/11/29 08:55:55;;;;;;;19.23;10.57;;;;;;;0.71;100.00;100503.56;5063576;28;20031;-73
2021/11/29 08:58:21;;;;;;;19.73;11.43;;;;;;;0.80;100.00;100515.84;5069077;28;20032;-73
2021/11/29 09:00:49;;;;;;;20.65;11.90;;;;;;;0.88;100.00;100516.34;5102616;28;20100;-73
2021/11/29 09:03:14;;;;;;;18.80;11.02;;;;;;;0.97;100.00;100525.06;5072113;28;20040;-72
2021/11/29 09:05:42;;;;;;;19.42;11.27;;;;;;;1.08;100.00;100537.13;5095464;28;20041;-72
2021/11/29 09:08:07;;;;;;;18.65;11.65;;;;;;;1.19;100.00;100554.66;5061226;28;20511;-72
2021/11/29 09:10:33;;;;;;;16.90;11.27;;;;;;;1.27;100.00;100551.63;5061088;28;20066;-72
2021/11/29 09:12:58;;;;;;;21.15;11.63;;;;;;;1.35;100.00;100556.75;5060253;28;20056;-73
2021/11/29 09:15:24;;;;;;;18.27;11.63;;;;;;;1.45;100.00;100542.50;5059346;28;20120;-73
2021/11/29 09:17:49;;;;;;;16.67;11.20;;;;;;;1.55;100.00;100553.72;5109390;27;20050;-73
2021/11/29 09:20:17;;;;;;;18.10;11.10;;;;;;;1.64;100.00;100557.81;5044991;28;20052;-74
2021/11/29 09:22:43;;;;;;;16.27;11.07;;;;;;;1.71;100.00;100555.81;5094104;28;20113;-74
2021/11/29 09:25:09;;;;;;;17.63;11.13;;;;;;;1.82;100.00;100559.66;5079136;28;20476;-73
2021/11/29 09:27:36;;;;;;;15.57;10.48;;;;;;;1.89;100.00;100562.25;5075860;28;20032;-73
2021/11/29 09:30:03;;;;;;;17.52;11.05;;;;;;;1.96;100.00;100574.78;5073441;28;20412;-73
2021/11/29 09:32:29;;;;;;;15.73;10.10;;;;;;;2.06;100.00;100571.44;5084226;28;20039;-73
2021/11/29 09:34:54;;;;;;;18.10;11.18;;;;;;;2.15;100.00;100572.78;5073156;28;20473;-74
2021/11/29 09:37:20;;;;;;;19.70;11.10;;;;;;;2.25;100.00;100572.19;5086344;28;20032;-73
2021/11/29 09:39:46;;;;;;;19.60;11.60;;;;;;;2.37;100.00;100584.00;5071299;28;20118;-74
2021/11/29 09:42:12;;;;;;;22.17;11.98;;;;;;;2.50;100.00;100576.59;5077130;28;20032;-74
2021/11/29 09:44:37;;;;;;;20.60;12.40;;;;;;;2.62;100.00;100581.03;5076445;28;20044;-74
2021/11/29 09:47:04;;;;;;;19.63;11.82;;;;;;;2.75;100.00;100579.91;5078072;28;20028;-73
2021/11/29 09:49:52;;;;;;;17.80;10.80;;;;;;;2.91;100.00;100595.63;5077375;28;20029;-73
2021/11/29 09:52:17;;;;;;;19.35;10.52;;;;;;;3.04;100.00;100583.56;5077156;28;20079;-73
2021/11/29 09:54:43;;;;;;;19.80;11.45;;;;;;;3.16;100.00;100597.25;5063293;28;20543;-74
2021/11/29 09:57:09;;;;;;;17.80;10.55;;;;;;;3.28;100.00;100595.28;5078373;28;20037;-74
2021/11/29 09:59:34;;;;;;;15.63;10.38;;;;;;;3.38;100.00;100593.84;5074232;28;20470;-74
2021/11/29 10:01:59;;;;;;;16.83;10.75;;;;;;;3.46;100.00;100597.03;5075766;28;20396;-74
2021/11/29 10:04:25;;;;;;;17.35;9.90;;;;;;;3.53;100.00;100588.66;5059678;28;20039;-74
2021/11/29 10:06:59;;;;;;;14.60;9.27;;;;;;;3.61;100.00;100591.00;5105013;27;20063;-74
2021/11/29 10:09:37;;;;;;;14.77;8.95;;;;;;;3.68;100.00;100594.44;5084273;28;20032;-73
2021/11/29 10:12:08;;;;;;;15.43;9.27;;;;;;;3.74;100.00;100598.94;5074515;28;20039;-73
2021/11/29 10:14:34;;;;;;;14.27;8.63;;;;;;;3.82;100.00;100594.97;5076925;28;20112;-73
2021/11/29 10:16:59;;;;;;;15.98;9.35;;;;;;;3.90;100.00;100607.44;5072886;28;20064;-73
2021/11/29 10:19:25;;;;;;;22.10;14.40;;;;;;;3.97;100.00;100606.22;5073722;28;20041;-74
2021/11/29 10:21:50;;;;;;;20.10;12.07;;;;;;;4.03;100.00;100610.72;5069371;28;20038;-74
2021/11/29 10:24:18;;;;;;;14.43;9.60;;;;;;;4.10;100.00;100612.50;5075806;28;20035;-73
2021/11/29 10:26:53;;;;;;;15.25;10.07;;;;;;;4.16;100.00;100617.81;5083022;28;20047;-73
2021/11/29 10:29:19;;;;;;;15.00;9.63;;;;;;;4.23;100.00;100618.50;5074867;28;20032;-73
2021/11/29 10:31:54;;;;;;;12.60;8.27;;;;;;;4.30;100.00;100617.50;5074410;28;20046;-73
2021/11/29 10:34:22;;;;;;;13.00;8.48;;;;;;;4.35;100.00;100621.16;5076589;28;20039;-73
2021/11/29 10:36:55;;;;;;;11.65;7.70;;;;;;;4.40;100.00;100614.88;5073050;28;20046;-73
2021/11/29 10:39:29;;;;;;;10.95;7.22;;;;;;;4.45;100.00;100617.72;5060396;28;20054;-71
2021/11/29 10:41:59;;;;;;;10.80;6.75;;;;;;;4.50;100.00;100612.31;5075290;28;20071;-71
2021/11/29 10:44:33;;;;;;;11.18;7.38;;;;;;;4.53;100.00;100620.06;5076200;28;20020;-70
2021/11/29 10:47:00;;;;;;;12.30;7.30;;;;;;;4.59;100.00;100618.22;5077183;28;20054;-70
2021/11/29 10:49:30;;;;;;;11.80;6.60;;;;;;;4.61;100.00;100611.38;5070678;28;20077;-71
2021/11/29 10:51:56;;;;;;;9.65;6.63;;;;;;;4.65;100.00;100619.94;5076426;28;20052;-71
2021/11/29 10:54:23;;;;;;;9.45;6.78;;;;;;;4.68;100.00;100616.69;5076905;28;20035;-72
2021/11/29 10:56:49;;;;;;;9.82;6.13;;;;;;;4.71;100.00;100618.97;5075758;28;20021;-71
2021/11/29 10:59:19;;;;;;;10.35;5.85;;;;;;;4.72;100.00;100619.78;5079437;28;20032;-70
2021/11/29 11:02:07;;;;;;;12.20;6.43;;;;;;;4.75;100.00;100619.28;5113142;27;20480;-71
2021/11/29 11:04:34;;;;;;;11.32;6.60;;;;;;;4.75;100.00;100622.88;5116423;27;20119;-71
2021/11/29 11:07:04;;;;;;;11.07;6.25;;;;;;;4.76;100.00;100626.44;5074751;28;20029;-71
2021/11/29 11:09:39;;;;;;;10.07;6.18;;;;;;;4.78;100.00;100621.53;5074712;28;20040;-71
2021/11/29 11:12:09;;;;;;;10.15;6.25;;;;;;;4.81;100.00;100627.34;5076476;28;20080;-71
2021/11/29 11:14:36;;;;;;;10.85;6.30;;;;;;;4.83;100.00;100633.44;5076702;28;20062;-70
2021/11/29 11:17:08;;;;;;;11.70;5.80;;;;;;;4.86;100.00;100632.94;5082149;28;20036;-70
2021/11/29 11:19:48;;;;;;;9.40;5.88;;;;;;;4.90;100.00;100625.84;5076115;28;20044;-70
2021/11/29 11:22:29;;;;;;;9.20;5.43;;;;;;;4.94;100.00;100626.16;5075848;28;20449;-71
2021/11/29 11:24:59;;;;;;;10.25;5.80;;;;;;;5.01;100.00;100632.31;5076896;28;20106;-70
2021/11/29 11:27:26;;;;;;;10.00;5.75;;;;;;;5.06;100.00;100629.63;5068632;28;20384;-71
2021/11/29 11:29:53;;;;;;;9.50;5.97;;;;;;;5.14;100.00;100633.88;5088164;28;20043;-70